Time;durP1;ratioP1;P1;durP2;ratioP2;P2;SDS_P1;SDS_P2;PMS_P1;PMS_P2;Temp;Humidity;BMP_temperature;BMP_pressure;BME280_temperature;BME280_humidity;BME280_pressure;Samples;Min_cycle;Max_cycle;Signal;HPM_P1;HPM_P2
2022/05/11 00:01:47;;;;;;;5.28;4.55;;;16.50;68.20;;;;;;5112971;28;20443;-71
2022/05/11 00:04:14;;;;;;;8.43;4.80;;;16.40;68.20;;;;;;5112670;28;20050;-73
2022/05/11 00:06:40;;;;;;;5.50;4.38;;;16.40;68.40;;;;;;5112716;28;20085;-73
2022/05/11 00:09:08;;;;;;;9.13;5.28;;;16.40;68.50;;;;;;5094774;28;20035;-73
2022/05/11 00:11:34;;;;;;;7.55;4.88;;;16.40;68.50;;;;;;5116375;28;20032;-73
2022/05/11 00:14:00;;;;;;;5.80;5.18;;;16.40;68.50;;;;;;5116537;28;20027;-73
2022/05/11 00:16:27;;;;;;;5.18;4.65;;;16.40;68.80;;;;;;5116404;28;20498;-73
2022/05/11 00:18:53;;;;;;;5.25;4.75;;;16.30;69.00;;;;;;5116251;28;20425;-73
2022/05/11 00:21:19;;;;;;;8.57;5.10;;;16.30;69.40;;;;;;5098049;28;20071;-73
2022/05/11 00:23:45;;;;;;;7.50;5.10;;;16.20;69.80;;;;;;5116177;28;20028;-73
2022/05/11 00:26:11;;;;;;;7.57;4.55;;;16.10;69.80;;;;;;5116563;28;20353;-75
2022/05/11 00:28:37;;;;;;;5.15;4.45;;;16.10;69.90;;;;;;5116251;28;20030;-76
2022/05/11 00:31:02;;;;;;;8.40;4.95;;;16.10;69.70;;;;;;5116164;28;20027;-76
2022/05/11 00:33:28;;;;;;;5.60;4.60;;;16.00;70.00;;;;;;5097825;28;20023;-74
2022/05/11 00:35:54;;;;;;;8.02;5.20;;;15.90;70.20;;;;;;5116105;28;20023;-76
2022/05/11 00:38:22;;;;;;;6.47;4.97;;;15.90;70.60;;;;;;5115952;28;20379;-76
2022/05/11 00:40:55;;;;;;;7.90;5.03;;;15.80;71.00;;;;;;5117947;28;20077;-73
2022/05/11 00:43:50;;;;;;;5.45;4.80;;;15.80;71.20;;;;;;5117317;28;20043;-72
2022/05/11 00:46:44;;;;;;;6.15;5.20;;;15.70;71.40;;;;;;5116931;28;20034;-74
2022/05/11 00:49:35;;;;;;;7.53;5.15;;;15.60;71.60;;;;;;5116471;28;20107;-74
2022/05/11 00:52:13;;;;;;;6.38;5.18;;;15.60;71.40;;;;;;5115908;28;20027;-74
2022/05/11 00:54:48;;;;;;;7.93;4.78;;;15.40;71.80;;;;;;5115817;28;20106;-76
2022/05/11 00:57:20;;;;;;;5.60;4.80;;;15.40;72.10;;;;;;5115801;28;20111;-75
2022/05/11 00:59:50;;;;;;;5.72;5.13;;;15.30;72.30;;;;;;5115696;28;20020;-75
2022/05/11 01:02:17;;;;;;;5.55;4.70;;;15.40;72.20;;;;;;5115681;28;20034;-76
2022/05/11 01:04:43;;;;;;;5.50;4.22;;;15.40;72.20;;;;;;5115964;28;20051;-75
2022/05/11 01:07:11;;;;;;;5.50;5.00;;;15.40;72.10;;;;;;5115335;28;20487;-75
2022/05/11 01:09:37;;;;;;;6.70;4.75;;;15.30;72.20;;;;;;5115477;28;20025;-75
2022/05/11 01:12:09;;;;;;;7.38;4.32;;;15.30;72.10;;;;;;5115394;28;20032;-75
2022/05/11 01:14:38;;;;;;;5.53;4.50;;;15.30;72.00;;;;;;5115426;28;20019;-75
2022/05/11 01:17:04;;;;;;;5.25;4.75;;;15.30;71.80;;;;;;5115265;28;20423;-75
2022/05/11 01:19:38;;;;;;;6.05;4.68;;;15.30;71.70;;;;;;5115301;28;20380;-73
2022/05/11 01:22:31;;;;;;;5.05;4.40;;;15.30;71.60;;;;;;5114093;28;20031;-75
2022/05/11 01:24:56;;;;;;;5.55;4.28;;;15.30;71.50;;;;;;5115239;28;20016;-75
2022/05/11 01:27:33;;;;;;;5.40;4.88;;;15.30;71.50;;;;;;5096984;28;20119;-75
2022/05/11 01:30:04;;;;;;;5.15;4.60;;;15.30;71.80;;;;;;5115183;28;20053;-75
2022/05/11 01:32:30;;;;;;;5.93;4.25;;;15.20;72.00;;;;;;5114900;28;20576;-76
2022/05/11 01:35:10;;;;;;;5.15;4.43;;;15.20;72.00;;;;;;5115018;28;20069;-75
2022/05/11 01:37:54;;;;;;;5.43;4.60;;;15.20;72.00;;;;;;5114842;28;20026;-75
2022/05/11 01:40:20;;;;;;;6.88;4.60;;;15.20;71.90;;;;;;5114890;28;20027;-76
2022/05/11 01:42:49;;;;;;;4.93;4.30;;;15.10;72.30;;;;;;5114721;28;20035;-75
2022/05/11 01:45:14;;;;;;;5.60;4.72;;;15.10;72.20;;;;;;5096439;28;20420;-75
2022/05/11 01:47:40;;;;;;;6.53;4.70;;;15.10;72.20;;;;;;5114740;28;20058;-75
2022/05/11 01:50:06;;;;;;;7.75;4.65;;;15.10;72.20;;;;;;5114758;28;20092;-76
2022/05/11 01:52:31;;;;;;;6.03;5.07;;;15.00;72.60;;;;;;5114645;28;20494;-75
2022/05/11 01:54:57;;;;;;;5.40;4.32;;;14.90;72.90;;;;;;5114629;28;20049;-76
2022/05/11 01:57:22;;;;;;;6.05;5.30;;;14.90;73.00;;;;;;5114589;28;20046;-75
2022/05/11 01:59:48;;;;;;;5.55;5.05;;;14.90;73.10;;;;;;5114448;28;20511;-74
2022/05/11 02:02:13;;;;;;;8.70;4.63;;;14.90;73.30;;;;;;5114479;28;20024;-75
2022/05/11 02:10:07;;;;;;;6.57;4.70;;;14.80;73.40;;;;;;5114438;28;20478;-75
2022/05/11 02:12:33;;;;;;;6.50;5.07;;;14.80;73.60;;;;;;5114082;28;20039;-76
2022/05/11 02:14:58;;;;;;;5.35;4.80;;;14.70;73.80;;;;;;5114478;28;20046;-75
2022/05/11 02:17:24;;;;;;;6.05;5.45;;;14.60;73.80;;;;;;5095739;28;20027;-75
2022/05/11 02:19:49;;;;;;;6.95;5.20;;;14.70;73.90;;;;;;5113911;28;20080;-74
2022/05/11 02:22:15;;;;;;;7.70;5.28;;;14.60;74.00;;;;;;5113894;28;20035;-75
2022/05/11 02:24:41;;;;;;;5.60;4.80;;;14.60;74.10;;;;;;5113959;28;20019;-76
2022/05/11 02:27:06;;;;;;;5.15;4.65;;;14.60;74.00;;;;;;5113792;28;20103;-75
2022/05/11 02:29:32;;;;;;;5.70;5.15;;;14.60;74.00;;;;;;5113837;28;20066;-75
2022/05/11 02:31:58;;;;;;;5.40;4.70;;;14.60;73.80;;;;;;5113435;28;20042;-75
2022/05/11 02:37:08;;;;;;;6.32;5.32;;;14.40;74.60;;;;;;5113902;28;20437;-75
2022/05/11 02:39:33;;;;;;;6.78;4.88;;;14.40;74.90;;;;;;5113665;28;20031;-75
2022/05/11 02:42:00;;;;;;;6.95;5.47;;;14.40;74.80;;;;;;5113493;28;20380;-75
2022/05/11 02:44:26;;;;;;;7.97;5.55;;;14.40;74.80;;;;;;5113571;28;20019;-75
2022/05/11 02:46:52;;;;;;;7.32;5.18;;;14.30;74.90;;;;;;5113561;28;20427;-75
2022/05/11 02:49:18;;;;;;;7.97;5.75;;;14.20;75.00;;;;;;5113417;28;20024;-75
2022/05/11 02:51:43;;;;;;;9.68;5.75;;;14.20;75.10;;;;;;5095149;28;20035;-75
2022/05/11 02:54:09;;;;;;;5.90;4.95;;;14.10;75.40;;;;;;5113522;28;20045;-75
2022/05/11 02:56:35;;;;;;;8.25;5.60;;;14.10;75.50;;;;;;5113468;28;20480;-75
2022/05/11 02:59:00;;;;;;;6.32;5.15;;;14.10;75.50;;;;;;5113527;28;20388;-75
2022/05/11 03:01:26;;;;;;;7.32;5.45;;;14.10;75.40;;;;;;5113395;28;20027;-75
2022/05/11 03:03:51;;;;;;;5.90;5.28;;;14.10;75.30;;;;;;5113489;28;20023;-75
2022/05/11 03:06:17;;;;;;;5.95;5.35;;;14.10;75.30;;;;;;5113486;28;20038;-75
2022/05/11 03:08:43;;;;;;;9.13;5.07;;;14.00;75.50;;;;;;5094978;28;20044;-75
2022/05/11 03:11:08;;;;;;;7.32;5.35;;;14.00;75.40;;;;;;5113356;28;20020;-76
2022/05/11 03:13:34;;;;;;;6.90;5.18;;;14.00;75.50;;;;;;5113423;28;20490;-75
2022/05/11 03:16:00;;;;;;;7.97;5.32;;;13.90;75.60;;;;;;5113288;28;20478;-75
2022/05/11 03:18:26;;;;;;;6.25;5.25;;;14.00;75.60;;;;;;5113219;28;20032;-72
2022/05/11 03:20:55;;;;;;;6.72;5.55;;;13.90;75.70;;;;;;5113303;28;20483;-72
2022/05/11 03:23:21;;;;;;;7.25;5.30;;;13.90;75.70;;;;;;5113265;28;20052;-72
2022/05/11 03:25:46;;;;;;;12.60;5.57;;;14.00;75.60;;;;;;5113206;28;20085;-72
2022/05/11 03:28:12;;;;;;;6.68;5.32;;;13.90;75.70;;;;;;5113036;28;20023;-72
2022/05/11 03:30:37;;;;;;;9.25;4.93;;;14.00;75.80;;;;;;5113274;28;20028;-72
2022/05/11 03:35:47;;;;;;;8.32;5.35;;;14.10;75.40;;;;;;5113149;28;20085;-72
2022/05/11 03:38:13;;;;;;;8.02;5.00;;;14.00;75.30;;;;;;5094808;28;20487;-72
2022/05/11 03:40:38;;;;;;;6.13;5.53;;;14.00;75.30;;;;;;5113316;28;20043;-72
2022/05/11 03:43:05;;;;;;;8.43;5.63;;;13.90;75.30;;;;;;5094796;28;20042;-72
2022/05/11 03:45:31;;;;;;;8.75;6.00;;;14.00;75.30;;;;;;5115684;28;20098;-72
2022/05/11 03:47:56;;;;;;;9.70;4.88;;;14.00;75.00;;;;;;5117171;28;20052;-71
2022/05/11 03:50:25;;;;;;;6.15;5.32;;;13.90;75.00;;;;;;5116972;28;20425;-72
2022/05/11 03:52:52;;;;;;;6.93;5.00;;;14.00;75.10;;;;;;5116724;28;20023;-72
2022/05/11 03:55:19;;;;;;;7.15;5.45;;;14.00;75.40;;;;;;5116854;28;20023;-71
2022/05/11 03:57:45;;;;;;;7.50;4.90;;;14.00;74.90;;;;;;5116843;28;20061;-72
2022/05/11 04:00:15;;;;;;;8.40;5.30;;;14.00;74.80;;;;;;5116803;28;20015;-72
2022/05/11 04:02:41;;;;;;;6.50;5.03;;;14.10;74.80;;;;;;5116717;28;20043;-74
2022/05/11 04:05:09;;;;;;;7.03;4.97;;;14.00;74.30;;;;;;5116619;28;20019;-73
2022/05/11 04:07:35;;;;;;;8.38;5.35;;;14.00;74.60;;;;;;5116791;28;20050;-74
2022/05/11 04:10:01;;;;;;;6.68;5.20;;;14.00;74.60;;;;;;5116588;28;20103;-75
2022/05/11 04:12:29;;;;;;;8.65;5.47;;;14.00;74.70;;;;;;5116363;28;20035;-74
2022/05/11 04:14:55;;;;;;;7.20;5.63;;;14.00;74.60;;;;;;5116261;28;20016;-75
2022/05/11 04:17:21;;;;;;;8.40;5.50;;;14.00;74.50;;;;;;5116355;28;20034;-75
2022/05/11 04:19:47;;;;;;;7.78;5.68;;;14.00;74.30;;;;;;5116195;28;20028;-74
2022/05/11 04:22:12;;;;;;;7.28;5.10;;;14.00;74.40;;;;;;5115955;28;20020;-76
2022/05/11 04:24:38;;;;;;;5.75;4.70;;;14.10;74.30;;;;;;5097577;28;20050;-75
2022/05/11 04:27:05;;;;;;;8.75;5.85;;;14.10;74.20;;;;;;5116196;28;20058;-75
2022/05/11 04:29:30;;;;;;;5.68;4.90;;;14.10;74.00;;;;;;5116005;28;20020;-75
2022/05/11 04:31:56;;;;;;;7.18;4.90;;;14.20;73.90;;;;;;5116027;28;20103;-75
2022/05/11 04:34:23;;;;;;;6.20;5.47;;;14.20;73.60;;;;;;5117960;28;20027;-74
2022/05/11 04:36:48;;;;;;;8.07;5.45;;;14.20;73.80;;;;;;5117447;28;20024;-74
2022/05/11 04:39:14;;;;;;;6.53;5.15;;;14.30;73.70;;;;;;5116646;28;20030;-75
2022/05/11 04:41:40;;;;;;;9.10;5.15;;;14.30;73.60;;;;;;5097513;28;20480;-74
2022/05/11 04:44:05;;;;;;;9.85;5.50;;;14.30;73.60;;;;;;5116015;28;20499;-73
2022/05/11 04:46:34;;;;;;;6.65;5.15;;;14.30;73.30;;;;;;5115821;28;20039;-72
2022/05/11 04:51:46;;;;;;;6.13;4.97;;;14.50;73.00;;;;;;5115710;28;20047;-71
2022/05/11 04:54:11;;;;;;;5.85;4.38;;;14.60;72.80;;;;;;5115633;28;20081;-71
2022/05/11 04:56:38;;;;;;;6.53;4.78;;;14.70;72.70;;;;;;5115297;28;20031;-73
2022/05/11 04:59:05;;;;;;;5.55;5.00;;;14.80;72.20;;;;;;5115641;28;20027;-73
2022/05/11 05:01:31;;;;;;;9.75;5.05;;;14.90;72.00;;;;;;5115382;28;20072;-73
2022/05/11 05:03:56;;;;;;;13.38;4.93;;;14.90;71.60;;;;;;5115565;28;20111;-73
2022/05/11 05:06:22;;;;;;;8.27;5.13;;;15.00;71.30;;;;;;5115609;28;20111;-73
2022/05/11 05:08:47;;;;;;;7.53;4.57;;;15.00;71.10;;;;;;5115305;28;20054;-71
2022/05/11 05:11:13;;;;;;;11.65;5.13;;;15.10;70.90;;;;;;5115257;28;20043;-73
2022/05/11 05:13:39;;;;;;;6.18;4.90;;;15.20;70.60;;;;;;5114839;28;20030;-72
2022/05/11 05:16:04;;;;;;;5.93;4.78;;;15.30;70.40;;;;;;5114672;28;20024;-72
2022/05/11 05:18:32;;;;;;;5.85;4.70;;;15.40;70.20;;;;;;5114858;28;20106;-74
2022/05/11 05:20:58;;;;;;;6.72;5.20;;;15.50;70.00;;;;;;5114708;28;20569;-73
2022/05/11 05:23:24;;;;;;;9.07;4.90;;;15.60;69.70;;;;;;5096420;28;20019;-73
2022/05/11 05:25:50;;;;;;;7.97;4.90;;;15.60;69.20;;;;;;5114012;28;20387;-72
2022/05/11 05:31:05;;;;;;;6.05;4.57;;;15.80;68.20;;;;;;5114460;28;20066;-72
2022/05/11 05:33:31;;;;;;;7.75;4.35;;;16.00;67.80;;;;;;5114541;28;20060;-72
2022/05/11 05:35:57;;;;;;;7.07;4.50;;;16.20;67.50;;;;;;5114506;28;20072;-72
2022/05/11 05:38:23;;;;;;;11.45;4.60;;;16.30;67.50;;;;;;5114617;28;20494;-73
2022/05/11 05:40:49;;;;;;;5.18;3.80;;;16.50;66.50;;;;;;5114498;28;20031;-72
2022/05/11 05:43:15;;;;;;;5.60;3.70;;;16.70;66.00;;;;;;5114242;28;20050;-73
2022/05/11 05:45:48;;;;;;;8.63;4.25;;;16.80;65.00;;;;;;5114323;28;20128;-73
2022/05/11 05:48:14;;;;;;;4.88;4.07;;;16.90;64.40;;;;;;5114244;28;20076;-72
2022/05/11 05:50:39;;;;;;;4.60;3.67;;;17.10;64.10;;;;;;5114311;28;20032;-73
2022/05/11 05:53:05;;;;;;;4.05;3.55;;;17.30;63.80;;;;;;5114318;28;20077;-73
2022/05/11 05:55:30;;;;;;;7.38;5.00;;;17.50;63.70;;;;;;5114037;28;20022;-72
2022/05/11 05:57:56;;;;;;;6.10;4.05;;;17.60;63.50;;;;;;5095811;28;20032;-73
2022/05/11 06:00:22;;;;;;;4.50;4.10;;;17.80;63.50;;;;;;5113643;28;20023;-74
2022/05/11 06:02:48;;;;;;;5.70;3.80;;;18.00;63.10;;;;;;5113660;28;20054;-74
2022/05/11 06:05:15;;;;;;;3.83;3.42;;;18.10;63.00;;;;;;5113495;28;20455;-75
2022/05/11 06:07:41;;;;;;;3.88;3.35;;;18.30;62.50;;;;;;5112915;28;20063;-74
2022/05/11 06:10:07;;;;;;;3.45;3.15;;;18.40;62.30;;;;;;5095354;28;20031;-76
2022/05/11 06:12:32;;;;;;;5.93;3.80;;;18.60;60.50;;;;;;5113596;28;20032;-76
2022/05/11 06:14:58;;;;;;;4.43;3.25;;;18.70;58.80;;;;;;5095947;28;20067;-76
2022/05/11 06:17:24;;;;;;;4.63;3.22;;;19.00;57.60;;;;;;5114576;28;20035;-76
2022/05/11 06:19:51;;;;;;;4.72;3.47;;;19.20;57.20;;;;;;5114901;28;20103;-77
2022/05/11 06:22:16;;;;;;;4.22;3.10;;;19.30;57.40;;;;;;5096351;28;20023;-76
2022/05/11 06:24:42;;;;;;;6.15;3.15;;;19.50;56.30;;;;;;5114426;28;20117;-75
2022/05/11 06:27:15;;;;;;;4.22;3.30;;;19.70;54.00;;;;;;5114917;28;20032;-76
2022/05/11 06:29:41;;;;;;;5.70;3.90;;;19.80;53.70;;;;;;5096163;28;20016;-73
2022/05/11 06:32:07;;;;;;;7.63;3.20;;;19.90;54.00;;;;;;5113457;28;20364;-76
2022/05/11 06:34:32;;;;;;;6.60;3.55;;;20.10;51.90;;;;;;5095445;28;20074;-76
2022/05/11 06:36:58;;;;;;;4.57;3.30;;;20.20;50.60;;;;;;5113655;28;20020;-76
2022/05/11 06:39:24;;;;;;;6.32;3.45;;;20.30;51.00;;;;;;5113920;28;20032;-76
2022/05/11 06:41:49;;;;;;;7.00;3.42;;;20.40;49.80;;;;;;5113829;28;20049;-76
2022/05/11 06:44:15;;;;;;;3.85;3.35;;;20.60;49.80;;;;;;5113702;28;20100;-79
2022/05/11 06:46:41;;;;;;;6.65;3.50;;;20.50;48.50;;;;;;5113951;28;20494;-78
2022/05/11 06:49:07;;;;;;;4.80;3.42;;;20.60;47.30;;;;;;5113964;28;20102;-77
2022/05/11 06:51:32;;;;;;;4.72;3.08;;;20.70;48.10;;;;;;5113775;28;20039;-76
2022/05/11 06:59:32;;;;;;;3.13;2.83;;;20.90;46.60;;;;;;5113834;28;20518;-75
2022/05/11 07:01:59;;;;;;;3.25;2.88;;;21.10;45.80;;;;;;5113939;28;20035;-77
2022/05/11 07:04:26;;;;;;;6.10;2.47;;;21.10;46.70;;;;;;5113283;28;20068;-77
2022/05/11 07:06:56;;;;;;;4.95;2.30;;;21.20;43.60;;;;;;5113432;28;20441;-76
2022/05/11 07:09:25;;;;;;;5.15;2.47;;;21.20;43.50;;;;;;5095810;28;20020;-77
2022/05/11 07:14:36;;;;;;;4.88;2.60;;;21.40;44.50;;;;;;5113434;28;20738;-76
2022/05/11 07:17:02;;;;;;;5.03;2.97;;;21.40;44.00;;;;;;5095156;28;20035;-76
2022/05/11 07:19:28;;;;;;;8.73;2.70;;;21.50;43.20;;;;;;5114584;28;20027;-76
2022/05/11 07:21:54;;;;;;;6.35;2.78;;;21.60;44.30;;;;;;5117570;28;20041;-76
2022/05/11 07:24:20;;;;;;;5.30;2.60;;;21.60;42.90;;;;;;5117287;28;20034;-73
2022/05/11 07:26:46;;;;;;;3.35;2.63;;;21.60;42.60;;;;;;5117429;28;20188;-74
2022/05/11 07:29:13;;;;;;;7.25;2.72;;;21.70;43.30;;;;;;5117265;28;20141;-73
2022/05/11 07:31:38;;;;;;;5.43;3.10;;;21.70;43.10;;;;;;5117068;28;20031;-73
2022/05/11 07:34:04;;;;;;;6.88;3.15;;;21.70;43.30;;;;;;5117071;28;20038;-73
2022/05/11 07:36:30;;;;;;;6.70;3.05;;;21.70;43.20;;;;;;5116914;28;20024;-74
2022/05/11 07:38:56;;;;;;;5.53;2.80;;;21.70;43.40;;;;;;5116498;28;20028;-74
2022/05/11 07:41:21;;;;;;;5.53;3.17;;;21.80;43.20;;;;;;5098361;28;20020;-73
2022/05/11 07:43:47;;;;;;;6.05;2.97;;;21.80;43.30;;;;;;5098680;28;20383;-72
2022/05/11 07:46:12;;;;;;;4.53;3.20;;;21.90;43.70;;;;;;5116697;28;20020;-72
2022/05/11 07:48:38;;;;;;;6.28;3.17;;;22.00;42.40;;;;;;5116771;28;20084;-73
2022/05/11 07:51:04;;;;;;;4.68;3.30;;;21.90;42.70;;;;;;5116468;28;20016;-72
2022/05/11 07:53:32;;;;;;;7.18;3.38;;;21.90;42.80;;;;;;5097995;28;20377;-74
2022/05/11 08:01:26;;;;;;;3.78;3.25;;;22.00;43.20;;;;;;5116801;28;20144;-74
2022/05/11 08:03:52;;;;;;;6.63;3.47;;;22.00;42.40;;;;;;5098090;28;20027;-74
2022/05/11 08:06:18;;;;;;;8.07;3.20;;;21.90;42.20;;;;;;5116438;28;20032;-75
2022/05/11 08:08:45;;;;;;;6.50;3.20;;;22.10;43.00;;;;;;5116295;28;20095;-74
2022/05/11 08:11:10;;;;;;;6.95;3.42;;;22.20;43.10;;;;;;5116181;28;20145;-75
2022/05/11 08:13:36;;;;;;;3.70;3.38;;;22.20;43.10;;;;;;5115922;28;20119;-75
2022/05/11 08:16:02;;;;;;;5.43;3.50;;;22.30;41.90;;;;;;5116169;28;20030;-73
2022/05/11 08:18:28;;;;;;;4.72;3.45;;;22.40;43.50;;;;;;5116012;28;20028;-75
2022/05/11 08:20:53;;;;;;;4.85;4.00;;;22.50;44.00;;;;;;5117806;28;20094;-74
2022/05/11 08:23:21;;;;;;;7.70;4.13;;;22.60;43.40;;;;;;5118646;28;20058;-75
2022/05/11 08:25:46;;;;;;;6.18;3.55;;;22.70;43.00;;;;;;5116811;28;20049;-74
2022/05/11 08:28:16;;;;;;;5.05;3.50;;;22.70;44.60;;;;;;5097866;28;20024;-75
2022/05/11 08:33:27;;;;;;;4.20;3.38;;;22.80;42.40;;;;;;5116180;28;20062;-74
2022/05/11 08:36:03;;;;;;;5.90;3.25;;;22.80;42.10;;;;;;5097654;28;20023;-76
2022/05/11 08:38:38;;;;;;;6.53;3.70;;;22.80;42.10;;;;;;5115793;28;20031;-74
2022/05/11 08:41:15;;;;;;;5.25;3.20;;;22.80;41.90;;;;;;5111957;28;20020;-74
2022/05/11 08:43:42;;;;;;;7.05;3.50;;;22.90;41.90;;;;;;5112430;28;20070;-74
2022/05/11 08:46:08;;;;;;;5.03;3.45;;;23.10;41.60;;;;;;5114607;28;20589;-74
2022/05/11 08:48:45;;;;;;;4.00;3.47;;;23.10;40.90;;;;;;5115487;28;20055;-75
2022/05/11 08:51:21;;;;;;;4.28;3.38;;;23.10;41.70;;;;;;5097359;28;20031;-75
2022/05/11 08:53:50;;;;;;;4.45;3.33;;;23.10;43.00;;;;;;5115503;28;20080;-75
2022/05/11 08:56:18;;;;;;;8.82;3.20;;;23.30;42.40;;;;;;5115043;28;20024;-76
2022/05/11 08:58:49;;;;;;;8.02;3.67;;;23.40;40.80;;;;;;5115637;28;20024;-80
2022/05/11 09:01:39;;;;;;;4.05;3.60;;;23.50;40.30;;;;;;5115975;28;20069;-84
2022/05/11 09:04:09;;;;;;;4.40;3.58;;;23.40;40.40;;;;;;5114803;28;20031;-83
2022/05/11 09:06:37;;;;;;;4.50;3.85;;;23.30;41.70;;;;;;5115384;28;20471;-81
2022/05/11 09:09:04;;;;;;;4.45;3.50;;;23.40;41.30;;;;;;5115344;28;20031;-78
2022/05/11 09:11:43;;;;;;;4.50;3.58;;;23.30;41.00;;;;;;5114716;28;20030;-76
2022/05/11 09:14:13;;;;;;;4.97;3.80;;;23.30;40.30;;;;;;5114174;28;20027;-75
2022/05/11 09:16:43;;;;;;;5.57;3.95;;;23.30;40.60;;;;;;5112746;28;20528;-75
2022/05/11 09:19:16;;;;;;;4.63;4.00;;;23.30;40.80;;;;;;5114959;28;20508;-82
2022/05/11 09:21:52;;;;;;;6.00;4.18;;;23.30;40.50;;;;;;5113243;28;20024;-76
2022/05/11 09:24:17;;;;;;;5.10;3.75;;;23.40;40.90;;;;;;5114593;28;20027;-81
2022/05/11 09:26:46;;;;;;;11.27;4.57;;;23.50;41.20;;;;;;5096838;28;20375;-81
2022/05/11 09:29:33;;;;;;;4.60;3.50;;;23.60;41.00;;;;;;5114848;28;20059;-78
2022/05/11 09:32:19;;;;;;;7.05;3.72;;;23.70;39.70;;;;;;5114396;28;20471;-76
2022/05/11 09:34:45;;;;;;;12.65;4.07;;;23.70;40.50;;;;;;5114611;28;20072;-76
2022/05/11 09:37:25;;;;;;;8.63;3.35;;;23.60;39.80;;;;;;5114762;28;20448;-77
2022/05/11 09:40:05;;;;;;;3.85;3.47;;;23.70;39.30;;;;;;5114298;28;20158;-74
2022/05/11 09:42:32;;;;;;;11.45;3.80;;;23.90;38.70;;;;;;5106359;28;20483;-74
2022/05/11 09:44:59;;;;;;;6.78;3.63;;;24.10;37.20;;;;;;5096095;28;20027;-77
2022/05/11 09:47:31;;;;;;;7.65;3.25;;;24.20;38.70;;;;;;5114265;28;20345;-75
2022/05/11 09:50:32;;;;;;;10.57;3.72;;;24.30;38.10;;;;;;5114060;28;20494;-71
2022/05/11 09:53:22;;;;;;;4.53;3.63;;;24.30;38.80;;;;;;5014565;28;20038;-71
2022/05/11 09:55:48;;;;;;;5.70;3.40;;;24.40;38.50;;;;;;5092465;28;20169;-72
2022/05/11 09:58:32;;;;;;;5.75;3.83;;;24.50;37.40;;;;;;5114141;28;20047;-74
2022/05/11 10:01:14;;;;;;;5.55;3.72;;;24.50;38.90;;;;;;5095779;28;20544;-77
2022/05/11 10:04:10;;;;;;;7.75;3.95;;;24.60;37.40;;;;;;5095113;28;20453;-76
2022/05/11 10:06:47;;;;;;;6.32;3.47;;;24.60;37.60;;;;;;5081939;28;20455;-77
2022/05/11 10:09:20;;;;;;;6.65;3.63;;;24.80;37.90;;;;;;5100829;28;20035;-76
2022/05/11 10:12:08;;;;;;;4.10;3.70;;;24.80;37.00;;;;;;5104423;28;20111;-76
2022/05/11 10:23:17;;;;;;;7.05;3.55;;;24.70;37.30;;;;;;5120834;28;20031;-74
2022/05/11 10:25:48;;;;;;;3.72;3.00;;;25.00;36.20;;;;;;5100436;28;20020;-75
2022/05/11 10:28:38;;;;;;;7.38;3.33;;;25.20;35.30;;;;;;5095662;28;20023;-75
2022/05/11 10:31:23;;;;;;;4.85;3.00;;;25.60;34.30;;;;;;5095478;28;20034;-74
2022/05/11 10:33:58;;;;;;;5.43;3.35;;;25.50;33.40;;;;;;5095142;28;20055;-75
2022/05/11 10:36:37;;;;;;;5.68;3.30;;;25.50;33.90;;;;;;5095137;28;20023;-76
2022/05/11 10:39:41;;;;;;;7.22;3.40;;;25.60;34.10;;;;;;5095350;28;20023;-76
2022/05/11 10:42:12;;;;;;;4.15;3.75;;;25.90;33.60;;;;;;5094594;28;20154;-75
2022/05/11 10:44:59;;;;;;;4.70;3.13;;;25.80;33.10;;;;;;5095020;28;20375;-75
2022/05/11 10:47:45;;;;;;;6.93;3.38;;;25.70;33.60;;;;;;5119209;28;20107;-75
2022/05/11 10:50:21;;;;;;;6.90;3.53;;;25.90;32.60;;;;;;5100356;28;20030;-75
2022/05/11 10:53:04;;;;;;;9.02;3.08;;;25.90;32.50;;;;;;5117747;28;20563;-75
2022/05/11 10:55:53;;;;;;;4.40;3.47;;;26.00;32.80;;;;;;5120322;28;20024;-75
2022/05/11 10:58:57;;;;;;;4.55;3.05;;;26.10;33.60;;;;;;5097842;28;20118;-75
2022/05/11 11:01:32;;;;;;;5.28;3.42;;;25.80;33.10;;;;;;5013496;28;20026;-75
2022/05/11 11:04:36;;;;;;;8.38;3.65;;;25.80;33.30;;;;;;5030027;28;20032;-76
2022/05/11 11:07:22;;;;;;;5.50;2.90;;;26.00;33.20;;;;;;5073550;28;20045;-73
2022/05/11 11:10:10;;;;;;;7.40;3.20;;;26.00;32.80;;;;;;5091230;28;20028;-73
2022/05/11 11:13:21;;;;;;;4.15;3.10;;;26.10;32.50;;;;;;5090860;28;20053;-75
2022/05/11 11:15:46;;;;;;;7.18;3.03;;;26.20;31.90;;;;;;5090955;28;20036;-76
2022/05/11 11:18:16;;;;;;;3.28;2.90;;;26.20;32.80;;;;;;5091592;28;20047;-76
2022/05/11 11:20:46;;;;;;;3.13;2.78;;;26.30;32.40;;;;;;5091606;28;20554;-76
2022/05/11 11:23:30;;;;;;;4.70;2.92;;;26.30;31.80;;;;;;5091265;28;20383;-76
2022/05/11 11:26:05;;;;;;;3.42;2.38;;;26.20;32.50;;;;;;5092510;28;20039;-75
2022/05/11 11:28:52;;;;;;;4.43;3.50;;;26.50;32.70;;;;;;5091648;28;20032;-78
2022/05/11 11:31:20;;;;;;;4.45;2.67;;;26.60;32.10;;;;;;5092471;28;20032;-75
2022/05/11 11:34:04;;;;;;;6.15;3.13;;;26.40;31.30;;;;;;5091268;28;20102;-76
2022/05/11 11:36:35;;;;;;;3.30;2.80;;;26.60;31.20;;;;;;5091567;28;20024;-75
2022/05/11 11:39:05;;;;;;;3.40;2.92;;;26.80;29.70;;;;;;5091584;28;20031;-75
2022/05/11 11:41:52;;;;;;;5.82;2.90;;;26.80;30.60;;;;;;5090596;28;20111;-75
2022/05/11 11:44:25;;;;;;;4.80;3.03;;;26.80;31.10;;;;;;5090715;28;20024;-75
2022/05/11 11:46:52;;;;;;;6.50;2.95;;;26.60;30.20;;;;;;5091012;28;20529;-75
2022/05/11 11:49:18;;;;;;;4.70;2.70;;;26.60;29.60;;;;;;5090877;28;20081;-74
2022/05/11 11:51:53;;;;;;;6.32;3.03;;;26.70;30.40;;;;;;5090819;28;20432;-73
2022/05/11 11:54:37;;;;;;;5.20;2.80;;;26.90;30.60;;;;;;5090813;28;20055;-77
2022/05/11 11:57:23;;;;;;;7.15;3.03;;;26.80;30.90;;;;;;5090969;28;20044;-73
2022/05/11 11:59:51;;;;;;;9.45;3.25;;;26.70;30.40;;;;;;5083639;28;20074;-78
2022/05/11 12:02:33;;;;;;;3.88;2.95;;;26.80;30.50;;;;;;5090810;28;20025;-76
2022/05/11 12:05:24;;;;;;;4.57;3.15;;;27.10;30.70;;;;;;5091627;28;20034;-74
2022/05/11 12:16:53;;;;;;;4.53;2.80;;;27.60;29.60;;;;;;5095816;28;20031;-77
2022/05/11 12:19:21;;;;;;;5.40;2.75;;;27.80;27.80;;;;;;5094192;28;20484;-73
2022/05/11 12:22:04;;;;;;;6.60;3.00;;;28.10;28.50;;;;;;5093781;28;20509;-75
2022/05/11 12:24:36;;;;;;;4.22;2.92;;;28.30;30.00;;;;;;5094240;28;20089;-77
2022/05/11 12:27:06;;;;;;;6.90;3.30;;;28.30;28.90;;;;;;5094417;28;20056;-75
2022/05/11 12:32:33;;;;;;;7.07;3.03;;;28.30;27.50;;;;;;5095446;28;20404;-75
2022/05/11 12:35:08;;;;;;;4.25;2.70;;;27.80;29.20;;;;;;5092929;28;20471;-75
2022/05/11 12:37:37;;;;;;;4.50;2.95;;;27.90;29.10;;;;;;5093853;28;20028;-74
2022/05/11 12:40:13;;;;;;;4.13;2.65;;;28.00;28.90;;;;;;5094004;28;20440;-76
2022/05/11 12:42:51;;;;;;;3.95;2.70;;;28.00;29.40;;;;;;5094061;28;20031;-74
2022/05/11 12:45:38;;;;;;;4.78;2.38;;;28.10;30.40;;;;;;5094181;28;20115;-76
2022/05/11 12:48:04;;;;;;;7.25;2.90;;;28.40;28.50;;;;;;5094177;28;20086;-75
2022/05/11 12:50:37;;;;;;;7.75;3.10;;;27.90;29.50;;;;;;5093828;28;20020;-75
2022/05/11 12:53:06;;;;;;;4.22;3.20;;;27.70;29.30;;;;;;5093682;28;20104;-76
2022/05/11 12:55:35;;;;;;;4.25;2.90;;;28.00;30.20;;;;;;5093940;28;20016;-75
2022/05/11 12:58:03;;;;;;;4.53;2.58;;;28.00;30.00;;;;;;5094158;28;20031;-75
2022/05/11 13:00:35;;;;;;;4.75;2.55;;;28.30;30.50;;;;;;5093854;28;20123;-76
2022/05/11 13:03:23;;;;;;;4.55;3.13;;;28.30;30.20;;;;;;5093905;28;20028;-75
2022/05/11 13:05:49;;;;;;;2.88;2.53;;;28.40;29.60;;;;;;5093785;28;20016;-78
2022/05/11 13:08:16;;;;;;;3.70;2.75;;;28.50;28.10;;;;;;5093487;28;20437;-76
2022/05/11 13:10:42;;;;;;;3.60;2.63;;;28.40;28.80;;;;;;5093515;28;20027;-76
2022/05/11 13:13:18;;;;;;;4.45;2.45;;;28.50;27.60;;;;;;5093380;28;20042;-76
2022/05/11 13:15:46;;;;;;;8.85;3.35;;;28.40;27.80;;;;;;5093265;28;20029;-75
2022/05/11 13:18:26;;;;;;;4.80;2.80;;;28.60;27.80;;;;;;5093557;28;20091;-75
2022/05/11 13:20:54;;;;;;;5.32;2.75;;;28.50;27.60;;;;;;5093425;28;20425;-75
2022/05/11 13:23:32;;;;;;;8.68;2.92;;;28.20;29.20;;;;;;5093526;28;20389;-75
2022/05/11 13:26:01;;;;;;;7.65;3.20;;;27.80;28.60;;;;;;5093561;28;20032;-75
2022/05/11 13:28:31;;;;;;;5.55;3.10;;;27.60;30.00;;;;;;5093148;28;20027;-76
2022/05/11 13:31:01;;;;;;;5.80;2.90;;;27.70;30.50;;;;;;5092853;28;20040;-76
2022/05/11 13:33:43;;;;;;;3.30;2.40;;;27.90;29.40;;;;;;5093263;28;20070;-75
2022/05/11 13:36:19;;;;;;;4.32;2.42;;;28.00;29.90;;;;;;5092873;28;20035;-75
2022/05/11 13:38:56;;;;;;;3.38;2.60;;;28.10;29.10;;;;;;5092642;28;20020;-78
2022/05/11 13:41:29;;;;;;;6.15;2.53;;;28.10;30.20;;;;;;5093052;28;20055;-78
2022/05/11 13:43:58;;;;;;;5.85;2.80;;;28.10;30.00;;;;;;5093282;28;20024;-78
2022/05/11 13:46:35;;;;;;;4.57;2.75;;;28.20;30.00;;;;;;5093079;28;20484;-79
2022/05/11 13:49:31;;;;;;;4.07;2.28;;;28.20;29.10;;;;;;5092713;28;20455;-78
2022/05/11 13:51:59;;;;;;;6.22;2.58;;;28.50;28.00;;;;;;5091855;28;20060;-77
2022/05/11 13:54:37;;;;;;;3.15;2.72;;;28.40;28.40;;;;;;5092268;28;20024;-77
2022/05/11 13:57:11;;;;;;;5.75;2.78;;;28.30;28.40;;;;;;5124067;27;20035;-78